Time;durP1;ratioP1;P1;durP2;ratioP2;P2;SDS_P1;SDS_P2;PMS_P1;PMS_P2;Temp;Humidity;BMP_temperature;BMP_pressure;BME280_temperature;BME280_humidity;BME280_pressure;Samples;Min_cycle;Max_cycle;Signal;HPM_P1;HPM_P2
2021/10/21 00:01:35;;;;;;;22.80;14.63;;;11.80;70.60;;;;;;5058752;28;20097;-35
2021/10/21 00:04:01;;;;;;;23.75;14.75;;;11.70;70.70;;;;;;5058962;28;20425;-36
2021/10/21 00:06:27;;;;;;;21.00;14.30;;;11.70;70.80;;;;;;5058524;28;20317;-35
2021/10/21 00:08:52;;;;;;;25.85;14.50;;;11.70;70.90;;;;;;5059036;28;20103;-36
2021/10/21 00:11:18;;;;;;;21.92;14.48;;;11.70;70.90;;;;;;5058660;28;20037;-38
2021/10/21 00:13:44;;;;;;;21.00;14.40;;;11.70;71.00;;;;;;5058811;28;20540;-36
2021/10/21 00:16:09;;;;;;;22.05;13.85;;;11.70;71.10;;;;;;5058530;28;20056;-35
2021/10/21 00:18:35;;;;;;;25.60;14.88;;;11.60;71.20;;;;;;5058869;28;20029;-39
2021/10/21 00:21:01;;;;;;;22.40;15.23;;;11.60;71.30;;;;;;5058809;28;20025;-38
2021/10/21 00:23:27;;;;;;;21.90;14.52;;;11.60;71.40;;;;;;5058879;28;20043;-38
2021/10/21 00:25:52;;;;;;;22.92;14.82;;;11.60;71.60;;;;;;5058734;28;20053;-36
2021/10/21 00:28:18;;;;;;;23.45;15.13;;;11.60;71.80;;;;;;5058041;28;20037;-35
2021/10/21 00:30:44;;;;;;;24.52;15.25;;;11.50;72.10;;;;;;5058677;28;20111;-37
2021/10/21 00:33:09;;;;;;;22.63;15.13;;;11.50;72.20;;;;;;5058628;28;20040;-38
2021/10/21 00:35:35;;;;;;;24.00;15.90;;;11.50;72.30;;;;;;5058170;28;20062;-38
2021/10/21 00:38:01;;;;;;;25.00;15.50;;;11.50;72.50;;;;;;5058197;28;20075;-38
2021/10/21 00:40:27;;;;;;;27.40;16.35;;;11.50;72.70;;;;;;5058345;28;20021;-35
2021/10/21 00:42:52;;;;;;;24.65;16.02;;;11.50;72.90;;;;;;5058287;28;20026;-38
2021/10/21 00:45:18;;;;;;;26.02;16.42;;;11.40;72.90;;;;;;5058046;28;20025;-40
2021/10/21 00:47:44;;;;;;;24.95;16.27;;;11.40;73.20;;;;;;5058483;28;20090;-39
2021/10/21 00:50:09;;;;;;;24.33;15.68;;;11.40;73.40;;;;;;5058134;28;20021;-35
2021/10/21 00:52:37;;;;;;;22.75;15.95;;;11.40;73.40;;;;;;5058226;28;20057;-35
2021/10/21 00:55:03;;;;;;;23.30;16.55;;;11.40;73.50;;;;;;5058319;28;20401;-40
2021/10/21 00:57:29;;;;;;;29.35;18.13;;;11.30;73.60;;;;;;5056354;28;20045;-35
2021/10/21 00:59:56;;;;;;;29.27;16.33;;;11.30;73.90;;;;;;5057929;28;20021;-35
2021/10/21 01:02:22;;;;;;;25.92;16.67;;;11.30;73.80;;;;;;5057773;28;20029;-38
2021/10/21 01:04:47;;;;;;;34.97;17.20;;;11.30;74.00;;;;;;5057768;28;20025;-35
2021/10/21 01:07:14;;;;;;;28.50;18.33;;;11.20;73.90;;;;;;5057728;28;20029;-38
2021/10/21 01:09:42;;;;;;;26.25;17.02;;;11.30;74.20;;;;;;5057536;28;20032;-38
2021/10/21 01:12:10;;;;;;;23.88;16.27;;;11.20;74.30;;;;;;5057638;28;20095;-35
2021/10/21 01:14:36;;;;;;;28.15;17.58;;;11.20;74.50;;;;;;5057456;28;20021;-35
2021/10/21 01:17:02;;;;;;;27.60;16.08;;;11.20;74.50;;;;;;5057514;28;20095;-35
2021/10/21 01:19:28;;;;;;;25.30;17.88;;;11.20;74.60;;;;;;5057478;28;20075;-38
2021/10/21 01:21:55;;;;;;;32.13;18.58;;;11.10;74.80;;;;;;5057618;28;20029;-39
2021/10/21 01:24:23;;;;;;;29.52;17.77;;;11.10;75.00;;;;;;5057508;28;20060;-38
2021/10/21 01:26:52;;;;;;;30.05;18.90;;;11.10;75.10;;;;;;5057386;28;20116;-35
2021/10/21 01:29:20;;;;;;;26.08;18.00;;;11.10;75.40;;;;;;5057308;28;20040;-35
2021/10/21 01:31:46;;;;;;;28.88;18.63;;;11.00;75.50;;;;;;5057190;28;20055;-35
2021/10/21 01:34:13;;;;;;;29.00;18.10;;;11.00;75.70;;;;;;5057137;28;20036;-39
2021/10/21 01:36:41;;;;;;;33.40;19.35;;;11.00;75.90;;;;;;5057237;28;20311;-38
2021/10/21 01:39:10;;;;;;;28.95;18.42;;;11.00;76.10;;;;;;5057553;28;20029;-38
2021/10/21 01:41:36;;;;;;;26.67;17.95;;;10.90;76.40;;;;;;5056854;28;20036;-37
2021/10/21 01:44:03;;;;;;;27.98;18.42;;;10.90;76.30;;;;;;5057250;28;20025;-39
2021/10/21 01:46:29;;;;;;;29.95;19.77;;;10.90;76.50;;;;;;5056767;28;20356;-37
2021/10/21 01:48:54;;;;;;;30.88;19.50;;;10.90;76.90;;;;;;5057286;28;20044;-38
2021/10/21 01:51:20;;;;;;;31.63;20.92;;;10.90;77.10;;;;;;5056619;28;20025;-39
2021/10/21 01:53:46;;;;;;;32.50;20.90;;;10.80;77.30;;;;;;5056951;28;20040;-35
2021/10/21 01:56:13;;;;;;;28.30;18.88;;;10.90;77.60;;;;;;5056337;28;20055;-35
2021/10/21 01:58:38;;;;;;;35.42;20.10;;;10.80;77.70;;;;;;5057259;28;20359;-38
2021/10/21 02:01:04;;;;;;;39.97;21.73;;;10.80;77.80;;;;;;5056991;28;20045;-39
2021/10/21 02:03:30;;;;;;;35.90;20.75;;;10.80;78.10;;;;;;5056796;28;20025;-34
2021/10/21 02:05:56;;;;;;;37.30;21.48;;;10.70;78.40;;;;;;5056928;28;20024;-38
2021/10/21 02:08:22;;;;;;;32.28;20.80;;;10.70;78.50;;;;;;5056213;28;20039;-35
2021/10/21 02:10:48;;;;;;;34.83;21.23;;;10.70;78.50;;;;;;5056751;28;20025;-35
2021/10/21 02:13:14;;;;;;;34.50;21.08;;;10.70;78.80;;;;;;5056300;28;20310;-38
2021/10/21 02:15:41;;;;;;;34.80;21.63;;;10.70;78.90;;;;;;5056079;28;20032;-38
2021/10/21 02:18:06;;;;;;;34.28;20.85;;;10.70;79.10;;;;;;5056567;28;20037;-36
2021/10/21 02:20:32;;;;;;;35.58;22.23;;;10.70;79.20;;;;;;5056155;28;20033;-35
2021/10/21 02:22:58;;;;;;;30.63;20.65;;;10.60;79.60;;;;;;5056061;28;20061;-35
2021/10/21 02:25:24;;;;;;;36.67;22.35;;;10.60;79.70;;;;;;5056387;28;20491;-34
2021/10/21 02:27:51;;;;;;;34.38;22.15;;;10.60;80.00;;;;;;5056553;28;20036;-35
2021/10/21 02:30:19;;;;;;;37.08;21.00;;;10.60;80.10;;;;;;5055881;28;20029;-38
2021/10/21 02:32:45;;;;;;;34.47;21.17;;;10.60;80.30;;;;;;5056339;28;20029;-38
2021/10/21 02:35:12;;;;;;;37.13;20.45;;;10.60;80.50;;;;;;5056142;28;20033;-38
2021/10/21 02:37:38;;;;;;;33.45;21.67;;;10.50;80.50;;;;;;5056080;28;20118;-38
2021/10/21 02:40:06;;;;;;;36.70;21.77;;;10.50;80.80;;;;;;5055890;28;20035;-35
2021/10/21 02:42:32;;;;;;;38.30;21.70;;;10.50;81.00;;;;;;5055583;28;20037;-38
2021/10/21 02:44:57;;;;;;;37.20;21.20;;;10.50;81.00;;;;;;5055846;28;20033;-35
2021/10/21 02:47:23;;;;;;;34.83;21.77;;;10.50;80.80;;;;;;5055896;28;20068;-38
2021/10/21 02:49:49;;;;;;;33.47;20.40;;;10.50;81.10;;;;;;5055572;28;20032;-35
2021/10/21 02:52:14;;;;;;;34.38;21.52;;;10.50;81.20;;;;;;5055566;28;20037;-34
2021/10/21 02:54:40;;;;;;;38.10;21.10;;;10.50;81.40;;;;;;5055903;28;20044;-36
2021/10/21 02:57:06;;;;;;;38.50;21.80;;;10.50;81.40;;;;;;5055564;28;20057;-35
2021/10/21 02:59:32;;;;;;;38.08;21.58;;;10.40;81.50;;;;;;5055586;28;20037;-38
2021/10/21 03:01:58;;;;;;;37.30;21.45;;;10.40;81.70;;;;;;5055701;28;20401;-35
2021/10/21 03:04:23;;;;;;;37.80;21.30;;;10.40;81.90;;;;;;5055580;28;20098;-34
2021/10/21 03:06:49;;;;;;;35.15;20.50;;;10.40;82.20;;;;;;5055823;28;20037;-38
2021/10/21 03:09:14;;;;;;;37.95;21.58;;;10.40;82.00;;;;;;5055168;28;20029;-35
2021/10/21 03:11:40;;;;;;;38.20;19.88;;;10.40;82.20;;;;;;5055626;28;20044;-35
2021/10/21 03:14:06;;;;;;;34.42;20.48;;;10.40;82.40;;;;;;5055607;28;20033;-35
2021/10/21 03:16:35;;;;;;;38.00;23.10;;;10.40;82.50;;;;;;5055218;28;20060;-38
2021/10/21 03:19:02;;;;;;;34.25;20.42;;;10.40;82.40;;;;;;5055105;28;20081;-38
2021/10/21 03:21:27;;;;;;;39.15;22.48;;;10.40;82.60;;;;;;5055066;28;20481;-35
2021/10/21 03:23:55;;;;;;;33.88;20.80;;;10.40;82.70;;;;;;5055614;28;20099;-33
2021/10/21 03:26:21;;;;;;;36.13;20.17;;;10.40;82.90;;;;;;5054869;28;20033;-38
2021/10/21 03:28:46;;;;;;;39.40;21.08;;;10.40;83.10;;;;;;5055305;28;20060;-34
2021/10/21 03:31:12;;;;;;;34.75;21.30;;;10.40;83.10;;;;;;5055754;28;20032;-34
2021/10/21 03:33:38;;;;;;;34.30;21.08;;;10.40;83.30;;;;;;5055642;28;20091;-34
2021/10/21 03:36:03;;;;;;;33.10;21.00;;;10.30;83.50;;;;;;5055061;28;20194;-34
2021/10/21 03:38:29;;;;;;;32.42;20.05;;;10.30;83.60;;;;;;5054888;28;20144;-39
2021/10/21 03:40:56;;;;;;;34.28;21.70;;;10.30;83.80;;;;;;5055035;28;20083;-35
2021/10/21 03:43:23;;;;;;;33.95;21.25;;;10.30;83.90;;;;;;5055343;28;20064;-38
2021/10/21 03:45:49;;;;;;;33.67;19.73;;;10.30;83.90;;;;;;5055280;28;20033;-34
2021/10/21 03:48:15;;;;;;;35.63;21.10;;;10.30;84.20;;;;;;5055162;28;20358;-37
2021/10/21 03:50:40;;;;;;;34.95;20.30;;;10.30;84.00;;;;;;5055306;28;20040;-34
2021/10/21 03:53:09;;;;;;;36.63;20.38;;;10.30;84.30;;;;;;5055412;28;20044;-38
2021/10/21 03:55:37;;;;;;;40.70;22.45;;;10.30;84.50;;;;;;5054943;28;20033;-38
2021/10/21 03:58:03;;;;;;;34.80;21.23;;;10.20;84.40;;;;;;5055343;28;20071;-35
2021/10/21 04:00:28;;;;;;;38.65;21.52;;;10.20;84.60;;;;;;5055129;28;20393;-35
2021/10/21 04:02:54;;;;;;;32.75;18.88;;;10.20;84.70;;;;;;5055105;28;20064;-35
2021/10/21 04:05:22;;;;;;;34.08;21.20;;;10.20;84.90;;;;;;5055139;28;20040;-38
2021/10/21 04:07:48;;;;;;;34.75;22.38;;;10.20;84.80;;;;;;5054789;28;20120;-35
2021/10/21 04:10:14;;;;;;;30.98;20.58;;;10.20;85.00;;;;;;5054377;28;20029;-38
2021/10/21 04:12:39;;;;;;;41.20;22.67;;;10.20;85.20;;;;;;5054856;28;20029;-35
2021/10/21 04:15:06;;;;;;;37.70;22.23;;;10.20;85.10;;;;;;5055398;28;20266;-38
2021/10/21 04:17:32;;;;;;;32.80;19.05;;;10.20;85.20;;;;;;5055058;28;20060;-34
2021/10/21 04:19:58;;;;;;;39.53;22.65;;;10.10;85.20;;;;;;5054601;28;20050;-35
2021/10/21 04:22:23;;;;;;;31.00;19.35;;;10.10;85.50;;;;;;5054842;28;20083;-38
2021/10/21 04:24:49;;;;;;;39.03;22.40;;;10.10;85.60;;;;;;5054189;28;20409;-39
2021/10/21 04:27:15;;;;;;;34.60;20.10;;;10.10;85.60;;;;;;5054249;28;20041;-38
2021/10/21 04:29:41;;;;;;;32.38;19.42;;;10.10;85.70;;;;;;5054810;28;20036;-38
2021/10/21 04:32:06;;;;;;;35.75;21.23;;;10.10;85.90;;;;;;5057519;28;20040;-38
2021/10/21 04:34:32;;;;;;;34.10;21.17;;;10.10;85.80;;;;;;5058335;28;20037;-38
2021/10/21 04:36:59;;;;;;;37.38;21.75;;;10.10;86.10;;;;;;5058197;28;20051;-39
2021/10/21 04:39:24;;;;;;;30.90;20.80;;;10.10;86.10;;;;;;5058002;28;20033;-40
2021/10/21 04:41:50;;;;;;;35.30;20.80;;;10.10;86.00;;;;;;5057886;28;20088;-35
2021/10/21 04:44:16;;;;;;;39.35;20.85;;;10.10;86.00;;;;;;5057844;28;20029;-37
2021/10/21 04:46:41;;;;;;;33.75;22.30;;;10.10;86.00;;;;;;5058167;28;20047;-40
2021/10/21 04:49:07;;;;;;;36.33;19.23;;;10.10;85.90;;;;;;5058023;28;20037;-34
2021/10/21 04:51:33;;;;;;;39.28;21.63;;;10.10;85.90;;;;;;5057344;28;20036;-34
2021/10/21 04:53:59;;;;;;;36.60;20.30;;;10.20;85.80;;;;;;5057920;28;20033;-38
2021/10/21 04:56:25;;;;;;;34.95;20.85;;;10.20;85.80;;;;;;5057052;28;20072;-35
2021/10/21 04:58:50;;;;;;;31.65;19.00;;;10.20;85.80;;;;;;5058166;28;20041;-34
2021/10/21 05:01:16;;;;;;;34.10;21.38;;;10.20;85.70;;;;;;5057329;28;20033;-39
2021/10/21 05:03:42;;;;;;;31.95;19.52;;;10.20;85.80;;;;;;5057710;28;20337;-38
2021/10/21 05:06:07;;;;;;;35.10;20.88;;;10.20;86.40;;;;;;5057757;28;20405;-34
2021/10/21 05:08:33;;;;;;;34.30;20.98;;;10.20;85.80;;;;;;5057559;28;20116;-39
2021/10/21 05:10:59;;;;;;;33.25;19.65;;;10.20;85.80;;;;;;5057791;28;20112;-38
2021/10/21 05:13:24;;;;;;;37.80;20.67;;;10.30;85.70;;;;;;5057644;28;20086;-35
2021/10/21 05:15:50;;;;;;;36.80;20.88;;;10.30;85.60;;;;;;5056990;28;20033;-38
2021/10/21 05:18:16;;;;;;;36.58;20.38;;;10.30;85.60;;;;;;5057430;28;20029;-38
2021/10/21 05:20:42;;;;;;;33.50;20.58;;;10.30;85.50;;;;;;5057056;28;20464;-39
2021/10/21 05:23:07;;;;;;;34.58;20.67;;;10.40;85.60;;;;;;5057377;28;20104;-39
2021/10/21 05:25:33;;;;;;;34.40;19.92;;;10.40;85.40;;;;;;5050306;28;20037;-35
2021/10/21 05:27:59;;;;;;;34.92;20.02;;;10.40;85.40;;;;;;5041800;28;20033;-35
2021/10/21 05:30:25;;;;;;;37.85;21.83;;;10.40;85.40;;;;;;5037014;28;20038;-35
2021/10/21 05:32:51;;;;;;;29.50;19.92;;;10.40;85.30;;;;;;5037179;28;20060;-38
2021/10/21 05:35:16;;;;;;;37.67;19.35;;;10.40;85.30;;;;;;5036890;28;20057;-39
2021/10/21 05:37:42;;;;;;;31.10;20.60;;;10.50;85.30;;;;;;5036931;28;20052;-35
2021/10/21 05:40:08;;;;;;;32.88;19.38;;;10.50;85.10;;;;;;5036720;28;20040;-39
2021/10/21 05:42:34;;;;;;;31.33;20.05;;;10.50;84.90;;;;;;5036281;28;20037;-39
2021/10/21 05:45:00;;;;;;;36.95;20.70;;;10.60;84.80;;;;;;5037061;28;20028;-39
2021/10/21 05:47:25;;;;;;;37.35;20.17;;;10.60;84.70;;;;;;5035629;28;20041;-39
2021/10/21 05:49:52;;;;;;;35.08;21.75;;;10.60;84.50;;;;;;5036311;28;20445;-39
2021/10/21 05:52:20;;;;;;;36.45;21.77;;;10.70;84.40;;;;;;5036620;28;20107;-35
2021/10/21 05:54:46;;;;;;;42.22;20.02;;;10.70;84.20;;;;;;5036530;28;20033;-35
2021/10/21 05:57:12;;;;;;;40.80;21.10;;;10.70;84.00;;;;;;5036277;28;20061;-35
2021/10/21 05:59:38;;;;;;;37.30;19.77;;;10.80;83.80;;;;;;5036425;28;20034;-35
2021/10/21 06:02:04;;;;;;;36.97;20.77;;;10.80;83.60;;;;;;5036589;28;20124;-35
2021/10/21 06:04:29;;;;;;;48.78;20.38;;;10.80;83.50;;;;;;5051832;28;20545;-35
2021/10/21 06:06:55;;;;;;;32.22;20.10;;;10.90;83.40;;;;;;5056213;28;20282;-40
2021/10/21 06:09:21;;;;;;;34.92;20.98;;;10.90;83.20;;;;;;5056034;28;20033;-40
2021/10/21 06:11:47;;;;;;;31.98;19.40;;;10.90;83.10;;;;;;5056070;28;20041;-40
2021/10/21 06:14:12;;;;;;;31.38;19.95;;;10.90;83.00;;;;;;5054940;28;20034;-40
2021/10/21 06:16:41;;;;;;;37.35;20.05;;;11.00;82.90;;;;;;5055986;28;20037;-39
2021/10/21 06:19:06;;;;;;;38.05;20.33;;;11.00;82.70;;;;;;5056497;28;20029;-34
2021/10/21 06:21:32;;;;;;;32.65;19.27;;;11.00;82.50;;;;;;5055885;28;20426;-35
2021/10/21 06:23:58;;;;;;;30.48;18.58;;;11.10;82.40;;;;;;5055396;28;20049;-35
2021/10/21 06:26:24;;;;;;;28.98;19.38;;;11.20;82.10;;;;;;5046219;28;20030;-39
2021/10/21 06:28:51;;;;;;;31.38;18.80;;;11.20;81.90;;;;;;5036310;28;20041;-35
2021/10/21 06:31:18;;;;;;;37.65;19.50;;;11.30;81.80;;;;;;5035626;28;20041;-36
2021/10/21 06:33:45;;;;;;;35.25;18.63;;;11.30;81.60;;;;;;5035894;28;20407;-38
2021/10/21 06:36:11;;;;;;;34.78;17.98;;;11.40;81.10;;;;;;5035744;28;20033;-36
2021/10/21 06:38:38;;;;;;;45.25;18.55;;;11.50;80.80;;;;;;5035340;28;20041;-39
2021/10/21 06:41:04;;;;;;;33.10;17.52;;;11.50;80.50;;;;;;5035669;28;20032;-34
2021/10/21 06:43:31;;;;;;;29.10;17.75;;;11.60;80.30;;;;;;5036049;28;20167;-34
2021/10/21 06:45:56;;;;;;;31.90;16.45;;;11.60;79.90;;;;;;5035827;28;20082;-39
2021/10/21 06:48:22;;;;;;;29.17;16.75;;;11.70;79.60;;;;;;5035268;28;20108;-35
2021/10/21 06:50:48;;;;;;;41.55;17.42;;;11.80;79.40;;;;;;5035784;28;20381;-35
2021/10/21 06:53:13;;;;;;;34.28;17.13;;;11.80;78.80;;;;;;5035732;28;20049;-39
2021/10/21 06:55:39;;;;;;;25.70;16.63;;;11.80;78.60;;;;;;5035283;28;20406;-36
2021/10/21 06:58:05;;;;;;;27.83;16.35;;;11.90;78.40;;;;;;5035384;28;20075;-36
2021/10/21 07:00:38;;;;;;;26.30;16.88;;;11.90;78.30;;;;;;5035445;28;20025;-34
2021/10/21 07:03:03;;;;;;;36.63;17.73;;;12.00;78.20;;;;;;5035378;28;20079;-35
2021/10/21 07:05:32;;;;;;;38.92;19.02;;;12.00;78.10;;;;;;5035065;28;20018;-35
2021/10/21 07:07:58;;;;;;;29.75;17.27;;;12.10;78.10;;;;;;5035543;28;20351;-36
2021/10/21 07:10:24;;;;;;;27.77;15.63;;;12.20;77.70;;;;;;5035419;28;20303;-36
2021/10/21 07:12:50;;;;;;;36.95;17.63;;;12.20;77.10;;;;;;5035746;28;20029;-36
2021/10/21 07:15:15;;;;;;;26.58;16.38;;;12.30;76.90;;;;;;5035066;28;20032;-39
2021/10/21 07:17:42;;;;;;;27.73;16.90;;;12.40;76.40;;;;;;5035361;28;20037;-36
2021/10/21 07:20:09;;;;;;;33.03;16.10;;;12.50;76.40;;;;;;5035373;28;20025;-35
2021/10/21 07:22:35;;;;;;;31.02;15.15;;;12.50;76.20;;;;;;5035579;28;20083;-40
2021/10/21 07:25:01;;;;;;;28.80;14.20;;;12.60;75.40;;;;;;5034991;28;20318;-36
2021/10/21 07:27:27;;;;;;;29.25;14.20;;;12.70;74.90;;;;;;5035164;28;20084;-35
2021/10/21 07:29:53;;;;;;;26.02;13.57;;;12.80;74.50;;;;;;5035322;28;20429;-40
2021/10/21 07:32:19;;;;;;;20.33;13.70;;;12.80;74.30;;;;;;5034972;28;20029;-35
2021/10/21 07:34:44;;;;;;;26.60;13.68;;;12.90;73.90;;;;;;5035049;28;20104;-34
2021/10/21 07:37:11;;;;;;;27.27;13.98;;;13.00;73.50;;;;;;5043927;28;20040;-34
2021/10/21 07:39:38;;;;;;;23.30;14.13;;;13.10;73.00;;;;;;5038776;28;20096;-33
2021/10/21 07:42:03;;;;;;;22.85;13.43;;;13.20;73.00;;;;;;5034969;28;20044;-39
2021/10/21 07:44:46;;;;;;;22.83;13.43;;;13.20;72.80;;;;;;5034705;28;20030;-39
2021/10/21 07:47:12;;;;;;;17.88;12.45;;;13.30;72.50;;;;;;5035014;28;20088;-38
2021/10/21 07:49:38;;;;;;;34.97;11.70;;;13.40;72.50;;;;;;5034687;28;20053;-35
2021/10/21 07:52:04;;;;;;;23.27;11.77;;;13.50;71.50;;;;;;5034841;28;20313;-38
2021/10/21 07:54:31;;;;;;;28.10;15.40;;;13.50;71.20;;;;;;5034980;28;20428;-39
2021/10/21 07:56:58;;;;;;;19.25;11.88;;;13.60;70.60;;;;;;5034732;28;20330;-36
2021/10/21 07:59:25;;;;;;;22.33;11.43;;;13.70;70.40;;;;;;5035060;28;20040;-35
2021/10/21 08:01:59;;;;;;;63.72;39.88;;;13.70;70.20;;;;;;5034730;28;20045;-40
2021/10/21 08:04:29;;;;;;;25.67;12.10;;;13.80;69.70;;;;;;5034748;28;20033;-35
2021/10/21 08:06:56;;;;;;;28.52;11.57;;;13.90;69.30;;;;;;5037155;28;20029;-36
2021/10/21 08:09:24;;;;;;;17.45;10.98;;;13.90;69.10;;;;;;5038632;28;20041;-36
2021/10/21 08:11:51;;;;;;;31.52;11.70;;;14.00;69.00;;;;;;5038603;28;20084;-38
2021/10/21 08:14:18;;;;;;;20.98;11.13;;;14.00;68.60;;;;;;5038192;28;20040;-39
2021/10/21 08:16:44;;;;;;;15.77;10.27;;;14.10;68.40;;;;;;5038576;28;20029;-39
2021/10/21 08:19:10;;;;;;;22.58;11.27;;;14.20;67.90;;;;;;5038528;28;20406;-36
2021/10/21 08:21:36;;;;;;;32.28;10.50;;;14.30;67.30;;;;;;5037988;28;20087;-39
2021/10/21 08:24:03;;;;;;;15.52;10.60;;;14.30;67.50;;;;;;5038633;28;20378;-35
2021/10/21 08:26:29;;;;;;;15.65;10.32;;;14.40;67.50;;;;;;5037945;28;20037;-40
2021/10/21 08:28:55;;;;;;;21.73;10.77;;;14.50;66.90;;;;;;5038652;28;20033;-36
2021/10/21 08:31:21;;;;;;;14.15;10.05;;;14.60;67.10;;;;;;5037879;28;20033;-40
2021/10/21 08:33:47;;;;;;;21.10;9.20;;;14.60;66.80;;;;;;5038168;28;20326;-39
2021/10/21 08:36:15;;;;;;;17.77;10.02;;;14.70;66.30;;;;;;5038132;28;20056;-39
2021/10/21 08:38:42;;;;;;;21.80;9.70;;;14.70;65.80;;;;;;5037239;28;20037;-39
2021/10/21 08:41:11;;;;;;;23.98;11.02;;;14.80;65.00;;;;;;5038127;28;20029;-35
2021/10/21 08:43:37;;;;;;;18.08;10.23;;;14.80;64.80;;;;;;5040919;28;20068;-36
2021/10/21 08:46:03;;;;;;;20.45;10.23;;;14.90;64.50;;;;;;5038196;28;20037;-39
2021/10/21 08:48:30;;;;;;;29.05;8.65;;;14.90;64.50;;;;;;5036711;28;20040;-35
2021/10/21 08:50:57;;;;;;;25.73;9.13;;;14.90;63.90;;;;;;5038130;28;20052;-35
2021/10/21 08:53:24;;;;;;;17.77;8.60;;;15.00;63.70;;;;;;5038196;28;20033;-39
2021/10/21 08:55:52;;;;;;;13.88;8.57;;;15.00;63.50;;;;;;5038015;28;20104;-40
2021/10/21 08:58:17;;;;;;;21.15;10.02;;;15.00;63.30;;;;;;5037717;28;20048;-35
2021/10/21 09:00:44;;;;;;;18.35;9.40;;;15.10;63.20;;;;;;5038008;28;20025;-39
2021/10/21 09:03:23;;;;;;;19.23;8.80;;;15.10;63.00;;;;;;5037961;28;20034;-39
2021/10/21 09:05:56;;;;;;;33.83;9.60;;;15.20;62.80;;;;;;5037763;28;20067;-39
2021/10/21 09:08:22;;;;;;;16.63;8.60;;;15.20;62.60;;;;;;5037117;28;20037;-38
2021/10/21 09:10:54;;;;;;;21.70;9.25;;;15.20;62.30;;;;;;5037121;28;20144;-35
2021/10/21 09:13:23;;;;;;;16.63;10.85;;;15.30;62.30;;;;;;5037746;28;20038;-35
2021/10/21 09:15:54;;;;;;;19.93;8.97;;;15.30;62.40;;;;;;5036126;28;20043;-39
2021/10/21 09:18:20;;;;;;;13.75;8.95;;;15.40;62.50;;;;;;5036265;28;20029;-39
2021/10/21 09:20:47;;;;;;;16.65;9.50;;;15.40;62.10;;;;;;5037077;28;20074;-39
2021/10/21 09:23:24;;;;;;;18.85;9.75;;;15.50;61.90;;;;;;5037558;28;20036;-39
2021/10/21 09:25:50;;;;;;;19.55;11.93;;;15.50;61.70;;;;;;5037501;28;20025;-39
2021/10/21 09:28:23;;;;;;;17.52;9.82;;;15.60;61.70;;;;;;5037530;28;20025;-35
2021/10/21 09:31:08;;;;;;;19.75;11.15;;;15.60;61.40;;;;;;5037133;28;20120;-36
2021/10/21 09:33:56;;;;;;;15.93;11.82;;;15.70;61.20;;;;;;5037286;28;20029;-39
2021/10/21 09:36:26;;;;;;;18.10;9.90;;;15.80;60.60;;;;;;5036686;28;20362;-36
2021/10/21 09:38:54;;;;;;;20.45;12.43;;;15.90;60.10;;;;;;5037371;28;20075;-35
2021/10/21 09:41:22;;;;;;;23.50;12.70;;;16.00;60.30;;;;;;5036700;28;20029;-40
2021/10/21 09:43:50;;;;;;;14.40;8.63;;;16.10;60.40;;;;;;5036505;28;20026;-40
2021/10/21 09:46:41;;;;;;;19.42;12.82;;;16.20;60.00;;;;;;5036510;28;20029;-39
2021/10/21 09:49:32;;;;;;;12.93;9.23;;;16.40;58.90;;;;;;5037176;28;20025;-35
2021/10/21 09:51:58;;;;;;;13.50;7.13;;;16.50;58.70;;;;;;5036674;28;20064;-38
2021/10/21 09:54:24;;;;;;;16.75;7.97;;;16.60;58.00;;;;;;5035279;28;20422;-34
2021/10/21 09:56:57;;;;;;;24.35;8.05;;;16.70;57.50;;;;;;5036309;28;20145;-39
2021/10/21 09:59:36;;;;;;;17.80;9.95;;;16.80;56.50;;;;;;5036320;28;20096;-39
2021/10/21 10:02:17;;;;;;;18.10;8.98;;;16.90;56.30;;;;;;5036455;28;20385;-40
2021/10/21 10:04:52;;;;;;;16.90;8.95;;;16.90;55.90;;;;;;5036668;28;20076;-39
2021/10/21 10:07:19;;;;;;;13.25;7.43;;;17.00;55.50;;;;;;5036139;28;20041;-39
2021/10/21 10:09:44;;;;;;;21.70;9.02;;;17.00;55.30;;;;;;5036519;28;20029;-39
2021/10/21 10:12:11;;;;;;;17.17;9.52;;;17.10;55.60;;;;;;5036432;28;20308;-39
2021/10/21 10:14:44;;;;;;;12.02;7.53;;;17.10;55.50;;;;;;5036068;28;20034;-35
2021/10/21 10:17:11;;;;;;;15.93;7.88;;;17.20;55.40;;;;;;5035838;28;20033;-34
2021/10/21 10:19:46;;;;;;;20.10;8.48;;;17.20;55.40;;;;;;5036067;28;20382;-35
2021/10/21 10:22:24;;;;;;;14.32;8.23;;;17.20;55.00;;;;;;5035648;28;20041;-34
2021/10/21 10:24:50;;;;;;;12.93;7.45;;;17.20;55.10;;;;;;5036303;28;20057;-35
2021/10/21 10:27:21;;;;;;;18.67;8.23;;;17.30;55.00;;;;;;5035657;28;20041;-35
2021/10/21 10:29:48;;;;;;;14.13;7.63;;;17.30;55.20;;;;;;5035537;28;20021;-35
2021/10/21 10:32:37;;;;;;;17.60;8.07;;;17.40;54.60;;;;;;5035771;28;20029;-35
2021/10/21 10:35:06;;;;;;;19.95;8.18;;;17.50;54.80;;;;;;5036040;28;20322;-35
2021/10/21 10:37:32;;;;;;;17.73;7.20;;;17.60;54.80;;;;;;5035739;28;20037;-37
2021/10/21 10:40:00;;;;;;;16.80;7.13;;;17.70;54.20;;;;;;5035565;28;20048;-35
2021/10/21 10:42:28;;;;;;;15.45;7.47;;;17.80;54.10;;;;;;5035202;28;20022;-35
2021/10/21 10:44:54;;;;;;;25.73;8.15;;;17.80;53.30;;;;;;5036079;28;20060;-40
2021/10/21 10:47:48;;;;;;;17.73;7.32;;;18.00;53.00;;;;;;5035701;28;20036;-35
2021/10/21 10:50:15;;;;;;;32.67;11.82;;;18.10;53.50;;;;;;5035527;28;20333;-36
2021/10/21 10:52:59;;;;;;;30.92;8.85;;;18.20;52.70;;;;;;5035944;28;20025;-40
2021/10/21 10:55:26;;;;;;;20.05;12.73;;;18.20;52.10;;;;;;5035708;28;20079;-39
2021/10/21 10:57:57;;;;;;;19.25;7.82;;;18.20;51.90;;;;;;5034861;28;20053;-34
2021/10/21 11:00:50;;;;;;;21.90;8.65;;;18.30;51.80;;;;;;5035376;28;20024;-39
2021/10/21 11:03:32;;;;;;;14.20;8.90;;;18.30;52.00;;;;;;5035669;28;20035;-35
2021/10/21 11:06:09;;;;;;;19.15;9.18;;;18.30;52.40;;;;;;5035647;28;20047;-39
2021/10/21 11:08:59;;;;;;;15.73;8.25;;;18.30;52.60;;;;;;5035801;28;20084;-40
2021/10/21 11:12:12;;;;;;;15.23;8.65;;;18.30;52.40;;;;;;5035350;28;20362;-39
2021/10/21 11:14:43;;;;;;;15.70;8.05;;;18.20;52.30;;;;;;5035547;28;20365;-36
2021/10/21 11:17:10;;;;;;;20.23;10.52;;;18.20;52.70;;;;;;5035542;28;20033;-39
2021/10/21 11:22:08;;;;;;;36.80;12.73;;;18.20;53.10;;;;;;5035550;28;20041;-39
2021/10/21 11:27:12;;;;;;;19.13;7.88;;;18.20;52.90;;;;;;5035262;28;20041;-40
2021/10/21 11:29:39;;;;;;;15.68;8.38;;;18.20;53.00;;;;;;5034887;28;20347;-39
2021/10/21 11:32:06;;;;;;;14.52;8.25;;;18.20;53.10;;;;;;5035130;28;20457;-40
2021/10/21 11:34:32;;;;;;;13.70;8.48;;;18.20;53.00;;;;;;5034974;28;20033;-39
2021/10/21 11:36:58;;;;;;;16.40;8.35;;;18.20;52.90;;;;;;5034910;28;20030;-39
2021/10/21 11:39:37;;;;;;;31.88;8.85;;;18.20;53.10;;;;;;5034984;28;20472;-39
2021/10/21 11:42:05;;;;;;;12.65;7.75;;;18.20;53.10;;;;;;5038308;28;20049;-36
2021/10/21 11:44:30;;;;;;;21.52;7.85;;;18.20;53.30;;;;;;5038875;28;20422;-35
2021/10/21 11:47:03;;;;;;;15.85;7.40;;;18.20;53.40;;;;;;5038804;28;20034;-37
2021/10/21 11:49:33;;;;;;;15.32;8.02;;;18.20;53.30;;;;;;5039065;28;20075;-40
2021/10/21 11:52:17;;;;;;;11.48;6.18;;;18.20;54.00;;;;;;5039130;28;20309;-40
2021/10/21 11:54:46;;;;;;;18.85;7.30;;;18.30;53.50;;;;;;5039105;28;20083;-36
2021/10/21 11:57:11;;;;;;;23.63;7.22;;;18.30;53.70;;;;;;5038698;28;20061;-39
2021/10/21 11:59:43;;;;;;;16.27;6.25;;;18.40;53.70;;;;;;5038875;28;20314;-39
2021/10/21 12:02:20;;;;;;;12.68;6.78;;;18.50;53.70;;;;;;5038882;28;20299;-41
2021/10/21 12:04:47;;;;;;;11.68;6.10;;;18.50;53.40;;;;;;5038828;28;20107;-39
2021/10/21 12:07:14;;;;;;;15.88;6.63;;;18.60;53.50;;;;;;5038399;28;20422;-39
2021/10/21 12:09:41;;;;;;;40.25;7.35;;;18.70;53.30;;;;;;5038677;28;20329;-36
2021/10/21 12:12:11;;;;;;;16.80;6.43;;;18.70;52.80;;;;;;5038020;28;20095;-41
2021/10/21 12:14:40;;;;;;;13.95;6.53;;;18.70;52.50;;;;;;5037159;28;20095;-35
2021/10/21 12:17:08;;;;;;;15.13;6.53;;;18.80;52.40;;;;;;5037966;28;20041;-38
2021/10/21 12:19:33;;;;;;;17.67;6.18;;;18.80;52.20;;;;;;5038527;28;20075;-39
2021/10/21 12:22:19;;;;;;;21.55;6.47;;;18.80;51.80;;;;;;5038272;28;20056;-36
2021/10/21 12:24:47;;;;;;;9.55;5.40;;;18.80;51.80;;;;;;5038931;28;20029;-36
2021/10/21 12:27:20;;;;;;;11.30;5.60;;;18.70;51.70;;;;;;5047954;28;20030;-35
2021/10/21 12:29:46;;;;;;;11.65;5.38;;;18.70;51.60;;;;;;5038355;28;20034;-35
2021/10/21 12:32:15;;;;;;;10.48;5.15;;;18.70;51.50;;;;;;5038076;28;20128;-39
2021/10/21 12:34:42;;;;;;;19.67;5.90;;;18.80;51.70;;;;;;5038267;28;20037;-38
2021/10/21 12:37:15;;;;;;;9.18;5.05;;;18.80;51.70;;;;;;5037884;28;20144;-39
2021/10/21 12:39:41;;;;;;;21.85;6.45;;;18.90;51.70;;;;;;5038385;28;20337;-40